createdAt,value
2018-04-06T00:00:13.746Z,2.70
2018-04-06T00:02:41.069Z,2.60
2018-04-06T00:05:07.648Z,2.60
2018-04-06T00:07:34.249Z,2.50
2018-04-06T00:10:01.570Z,2.50
2018-04-06T00:12:28.119Z,2.50
2018-04-06T00:14:54.647Z,2.50
2018-04-06T00:17:21.230Z,2.50
2018-04-06T00:19:48.530Z,2.50
2018-04-06T00:22:15.119Z,2.50
2018-04-06T00:24:42.402Z,2.40
2018-04-06T00:27:08.998Z,2.40
2018-04-06T00:29:35.576Z,2.30
2018-04-06T00:32:02.138Z,2.20
2018-04-06T00:34:29.494Z,2.10
2018-04-06T00:36:56.067Z,2.00
2018-04-06T00:39:23.346Z,1.90
2018-04-06T00:41:49.951Z,1.90
2018-04-06T00:44:16.523Z,1.80
2018-04-06T00:46:43.191Z,1.80
2018-04-06T00:49:09.745Z,1.70
2018-04-06T00:51:36.305Z,1.70
2018-04-06T00:54:02.920Z,1.70
2018-04-06T00:56:29.556Z,1.60
2018-04-06T00:58:56.117Z,1.50
2018-04-06T01:01:22.659Z,1.50
2018-04-06T01:03:50.064Z,1.60
2018-04-06T01:06:16.685Z,1.50
2018-04-06T01:08:43.107Z,1.50
2018-04-06T01:11:09.467Z,1.40
2018-04-06T01:13:36.597Z,1.30
2018-04-06T01:16:03.012Z,1.30
2018-04-06T01:18:29.430Z,1.20
2018-04-06T01:20:55.777Z,1.20
2018-04-06T01:23:22.177Z,1.10
2018-04-06T01:25:48.538Z,1.10
2018-04-06T01:28:14.904Z,1.00
2018-04-06T01:30:41.249Z,1.00
2018-04-06T01:33:08.352Z,0.90
2018-04-06T01:35:35.733Z,0.90
2018-04-06T01:38:02.085Z,0.90
2018-04-06T01:40:29.220Z,0.80
2018-04-06T01:42:56.351Z,0.80
2018-04-06T01:45:22.717Z,0.80
2018-04-06T01:47:49.836Z,0.70
2018-04-06T01:50:16.246Z,0.60
2018-04-06T01:52:42.597Z,0.60
2018-04-06T01:55:08.975Z,0.60
2018-04-06T01:57:35.339Z,0.50
2018-04-06T02:00:01.748Z,0.50
2018-04-06T02:02:28.089Z,0.40
2018-04-06T02:04:54.442Z,0.40
2018-04-06T02:07:20.841Z,0.40
2018-04-06T02:09:47.250Z,0.40
2018-04-06T02:12:14.446Z,0.30
2018-04-06T02:14:40.838Z,0.30
2018-04-06T02:17:07.951Z,0.30
2018-04-06T02:19:34.341Z,0.30
2018-04-06T02:22:00.726Z,0.30
2018-04-06T02:24:27.118Z,0.30
2018-04-06T02:26:53.492Z,0.20
2018-04-06T02:29:19.898Z,0.20
2018-04-06T02:31:46.285Z,0.20
2018-04-06T02:34:12.658Z,0.30
2018-04-06T02:36:39.030Z,0.40
2018-04-06T02:39:05.398Z,0.50
2018-04-06T02:41:31.804Z,0.50
2018-04-06T02:43:58.173Z,0.50
2018-04-06T02:46:25.261Z,0.50
2018-04-06T02:48:51.622Z,0.50
2018-04-06T02:51:18.752Z,0.50
2018-04-06T02:53:45.114Z,0.50
2018-04-06T02:56:11.473Z,0.50
2018-04-06T02:58:37.859Z,0.50
2018-04-06T03:01:04.235Z,0.50
2018-04-06T03:03:31.371Z,0.40
2018-04-06T03:05:59.508Z,0.40
2018-04-06T03:08:25.861Z,0.30
2018-04-06T03:10:52.245Z,0.40
2018-04-06T03:13:18.623Z,0.40
2018-04-06T03:15:45.756Z,0.30
2018-04-06T03:18:12.150Z,0.30
2018-04-06T03:20:38.558Z,0.30
2018-04-06T03:23:05.694Z,0.30
2018-04-06T03:25:32.061Z,0.30
2018-04-06T03:27:58.447Z,0.20
2018-04-06T03:30:24.837Z,0.20
2018-04-06T03:32:51.225Z,0.10
2018-04-06T03:35:17.594Z,0.10
2018-04-06T03:37:44.694Z,0.00
2018-04-06T03:40:11.058Z,0.00
2018-04-06T03:42:37.395Z,0.00
2018-04-06T03:45:04.546Z,-0.10
2018-04-06T03:47:31.681Z,-0.20
2018-04-06T03:49:58.049Z,-0.20
2018-04-06T03:52:24.405Z,-0.20
2018-04-06T03:54:50.751Z,-0.20
2018-04-06T03:57:17.117Z,-0.30
2018-04-06T03:59:43.475Z,-0.30
2018-04-06T04:02:09.848Z,-0.30
2018-04-06T04:04:36.280Z,-0.40
2018-04-06T04:07:02.710Z,-0.40
2018-04-06T04:09:29.090Z,-0.40
2018-04-06T04:11:55.522Z,-0.40
2018-04-06T04:14:21.905Z,-0.40
2018-04-06T04:16:48.273Z,-0.50
2018-04-06T04:19:15.389Z,-0.40
2018-04-06T04:21:41.757Z,-0.40
2018-04-06T04:24:08.898Z,-0.40
2018-04-06T04:26:35.297Z,-0.40
2018-04-06T04:29:01.674Z,-0.40
2018-04-06T04:31:28.045Z,-0.40
2018-04-06T04:33:54.437Z,-0.40
2018-04-06T04:36:20.806Z,-0.40
2018-04-06T04:38:47.226Z,-0.40
2018-04-06T04:41:14.336Z,-0.40
2018-04-06T04:43:40.703Z,-0.40
2018-04-06T04:46:07.850Z,-0.40
2018-04-06T04:48:34.945Z,-0.40
2018-04-06T04:51:01.316Z,-0.40
2018-04-06T04:53:27.707Z,-0.40
2018-04-06T04:55:54.058Z,-0.50
2018-04-06T04:58:20.549Z,-0.50
2018-04-06T05:00:46.922Z,-0.50
2018-04-06T05:03:13.281Z,-0.60
2018-04-06T05:05:39.670Z,-0.60
2018-04-06T05:08:06.045Z,-0.60
2018-04-06T05:10:33.249Z,-0.60
2018-04-06T05:12:59.621Z,-0.60
2018-04-06T05:15:26.742Z,-0.60
2018-04-06T05:17:53.125Z,-0.60
2018-04-06T05:20:19.497Z,-0.60
2018-04-06T05:22:45.873Z,-0.50
2018-04-06T05:25:12.235Z,-0.50
2018-04-06T05:27:38.634Z,-0.50
2018-04-06T05:30:05.044Z,-0.50
2018-04-06T05:32:31.493Z,-0.50
2018-04-06T05:34:58.106Z,-0.50
2018-04-06T05:37:24.481Z,-0.40
2018-04-06T05:39:50.849Z,-0.40
2018-04-06T05:42:17.962Z,-0.30
2018-04-06T05:44:44.300Z,-0.30
2018-04-06T05:47:11.629Z,-0.20
2018-04-06T05:49:37.985Z,-0.20
2018-04-06T05:52:04.382Z,-0.20
2018-04-06T05:54:30.744Z,-0.10
2018-04-06T05:56:57.121Z,0.00
2018-04-06T05:59:23.536Z,0.00
2018-04-06T06:01:50.638Z,0.20
2018-04-06T06:04:17.021Z,0.20
2018-04-06T06:06:44.129Z,0.30
2018-04-06T06:09:10.476Z,0.30
2018-04-06T06:11:37.610Z,0.40
2018-04-06T06:14:04.793Z,0.50
2018-04-06T06:16:32.319Z,0.60
2018-04-06T06:18:58.742Z,0.60
2018-04-06T06:21:25.121Z,0.70
2018-04-06T06:23:52.245Z,0.90
2018-04-06T06:26:18.629Z,0.90
2018-04-06T06:28:45.011Z,1.00
2018-04-06T06:31:11.373Z,1.10
2018-04-06T06:33:41.641Z,1.40
2018-04-06T06:36:08.042Z,1.60
2018-04-06T06:38:35.180Z,2.10
2018-04-06T06:41:02.269Z,2.50
2018-04-06T06:43:28.653Z,2.50
2018-04-06T06:45:55.769Z,3.00
2018-04-06T06:48:22.167Z,3.00
2018-04-06T06:50:48.529Z,3.30
2018-04-06T06:53:14.901Z,3.70
2018-04-06T06:55:41.301Z,4.00
2018-04-06T06:58:07.674Z,4.20
2018-04-06T07:00:34.053Z,4.40
2018-04-06T07:03:00.450Z,4.70
2018-04-06T07:05:27.596Z,5.40
2018-04-06T07:07:54.009Z,5.40
2018-04-06T07:10:21.202Z,6.30
2018-04-06T07:12:47.556Z,6.20
2018-04-06T07:15:13.946Z,6.50
2018-04-06T07:17:40.338Z,6.80
2018-04-06T07:20:06.747Z,6.90
2018-04-06T07:22:33.351Z,7.20
2018-04-06T07:24:59.760Z,7.30
2018-04-06T07:27:26.126Z,7.40
2018-04-06T07:29:52.493Z,7.60
2018-04-06T07:32:18.836Z,7.80
2018-04-06T07:34:45.241Z,8.10
2018-04-06T07:37:11.594Z,8.30
2018-04-06T07:39:37.986Z,8.20
2018-04-06T07:42:05.085Z,8.10
2018-04-06T07:44:31.445Z,8.10
2018-04-06T07:46:57.826Z,8.30
2018-04-06T07:49:24.213Z,8.20
2018-04-06T07:51:50.582Z,8.40
2018-04-06T07:54:17.661Z,8.80
2018-04-06T07:56:44.058Z,8.80
2018-04-06T07:59:11.272Z,9.10
2018-04-06T08:01:38.424Z,9.30
2018-04-06T08:04:05.862Z,9.20
2018-04-06T08:06:32.262Z,9.40
2018-04-06T08:08:58.635Z,9.30
2018-04-06T08:11:25.004Z,9.50
2018-04-06T08:13:52.124Z,9.80
2018-04-06T08:16:18.509Z,9.80
2018-04-06T08:18:44.924Z,10.20
2018-04-06T08:21:11.356Z,10.00
2018-04-06T08:23:38.151Z,9.80
2018-04-06T08:26:04.557Z,9.60
2018-04-06T08:28:30.962Z,9.70
2018-04-06T08:30:58.117Z,9.80
2018-04-06T08:33:25.430Z,9.80
2018-04-06T08:35:51.837Z,9.80
2018-04-06T08:38:18.264Z,9.90
2018-04-06T08:40:44.656Z,10.10
2018-04-06T08:43:11.830Z,10.10
2018-04-06T08:45:38.949Z,9.90
2018-04-06T08:48:05.361Z,9.90
2018-04-06T08:50:31.941Z,10.00
2018-04-06T08:52:59.039Z,10.20
2018-04-06T08:55:25.433Z,10.20
2018-04-06T08:57:52.544Z,10.70
2018-04-06T09:00:18.888Z,10.70
2018-04-06T09:02:45.365Z,11.20
2018-04-06T09:05:11.881Z,11.50
2018-04-06T09:07:39.057Z,11.80
2018-04-06T09:10:05.529Z,11.80
2018-04-06T09:12:31.923Z,12.00
2018-04-06T09:14:58.291Z,12.40
2018-04-06T09:17:24.702Z,12.30
2018-04-06T09:19:51.102Z,12.40
2018-04-06T09:25:15.165Z,12.40
2018-04-06T09:27:42.618Z,12.60
2018-04-06T09:30:09.468Z,12.60
2018-04-06T09:32:36.097Z,12.90
2018-04-06T09:35:03.657Z,13.40
2018-04-06T09:37:31.024Z,13.70
2018-04-06T09:39:58.370Z,14.00
2018-04-06T09:42:25.112Z,14.00
2018-04-06T09:44:52.472Z,14.80
2018-04-06T09:47:20.026Z,14.60
2018-04-06T09:49:47.485Z,14.40
2018-04-06T09:52:15.045Z,14.10
2018-04-06T09:54:41.795Z,14.00
2018-04-06T09:57:09.348Z,14.00
2018-04-06T09:59:36.089Z,14.00
2018-04-06T10:02:09.693Z,15.00
2018-04-06T10:04:37.149Z,15.50
2018-04-06T10:07:03.993Z,15.50
2018-04-06T10:09:31.349Z,16.10
2018-04-06T10:11:58.910Z,16.30
2018-04-06T10:14:26.470Z,16.40
2018-04-06T10:16:53.316Z,16.40
2018-04-06T10:19:20.056Z,15.80
2018-04-06T10:21:47.720Z,15.80
2018-04-06T10:24:14.459Z,15.70
2018-04-06T10:26:41.200Z,15.60
2018-04-06T10:29:08.679Z,15.00
2018-04-06T10:31:35.402Z,15.00
2018-04-06T10:34:02.143Z,14.60
2018-04-06T10:36:28.889Z,14.90
2018-04-06T10:38:56.553Z,15.00
2018-04-06T10:41:23.295Z,14.90
2018-04-06T10:43:54.023Z,15.20
2018-04-06T10:46:20.769Z,15.40
2018-04-06T10:48:48.224Z,15.30
2018-04-06T10:51:14.963Z,15.20
2018-04-06T10:53:41.603Z,15.50
2018-04-06T10:56:09.063Z,15.40
2018-04-06T10:58:36.170Z,15.40
2018-04-06T11:01:02.955Z,15.60
2018-04-06T11:03:34.713Z,15.90
2018-04-06T11:06:01.458Z,15.90
2018-04-06T11:08:28.922Z,15.90
2018-04-06T11:10:55.757Z,15.90
2018-04-06T11:13:22.605Z,15.90
2018-04-06T11:15:49.340Z,16.20
2018-04-06T11:18:16.084Z,15.60
2018-04-06T11:20:43.643Z,15.50
2018-04-06T11:23:10.396Z,15.50
2018-04-06T11:25:37.229Z,15.40
2018-04-06T11:28:03.970Z,15.70
2018-04-06T11:30:31.431Z,16.00
2018-04-06T11:32:58.181Z,16.00
2018-04-06T11:35:25.731Z,16.90
2018-04-06T11:37:53.193Z,16.90
2018-04-06T11:40:20.036Z,16.60
2018-04-06T11:42:46.774Z,16.60
2018-04-06T11:45:14.231Z,15.90
2018-04-06T11:47:41.694Z,15.90
2018-04-06T11:50:08.537Z,15.90
2018-04-06T11:52:35.585Z,16.00
2018-04-06T11:55:02.325Z,16.30
2018-04-06T11:57:29.065Z,16.60
2018-04-06T11:59:55.807Z,16.30
2018-04-06T12:02:23.372Z,16.70
2018-04-06T12:04:50.109Z,16.70
2018-04-06T12:07:17.460Z,16.30
2018-04-06T12:09:45.025Z,16.60
2018-04-06T12:12:12.483Z,16.90
2018-04-06T12:14:39.226Z,16.90
2018-04-06T12:17:05.965Z,16.90
2018-04-06T12:19:33.425Z,17.50
2018-04-06T12:22:00.883Z,17.60
2018-04-06T12:24:28.443Z,17.10
2018-04-06T12:26:55.185Z,17.10
2018-04-06T12:29:21.925Z,17.10
2018-04-06T12:31:49.488Z,17.30
2018-04-06T12:34:17.048Z,16.80
2018-04-06T12:36:43.899Z,16.80
2018-04-06T12:39:11.449Z,17.10
2018-04-06T12:41:38.193Z,17.10
2018-04-06T12:44:05.651Z,17.30
2018-04-06T12:49:33.667Z,17.50
2018-04-06T12:52:00.031Z,17.50
2018-04-06T12:54:28.323Z,17.20
2018-04-06T12:56:56.256Z,16.60
2018-04-06T12:59:22.619Z,16.60
2018-04-06T13:01:49.743Z,16.10
2018-04-06T13:04:16.126Z,16.10
2018-04-06T13:06:42.563Z,16.30
2018-04-06T13:09:09.077Z,16.60
2018-04-06T13:11:35.540Z,16.60
2018-04-06T13:14:01.943Z,16.30
2018-04-06T13:16:28.330Z,16.40
2018-04-06T13:18:55.490Z,16.30
2018-04-06T13:21:22.696Z,16.40
2018-04-06T13:23:49.119Z,16.40
2018-04-06T13:26:15.521Z,16.10
2018-04-06T13:28:41.957Z,16.20
2018-04-06T13:31:09.103Z,16.20
2018-04-06T13:33:36.261Z,16.00
2018-04-06T13:36:02.668Z,16.00
2018-04-06T13:38:29.097Z,16.20
2018-04-06T13:40:55.558Z,16.30
2018-04-06T13:43:22.699Z,16.40
2018-04-06T13:45:49.155Z,16.40
2018-04-06T13:48:16.304Z,16.40
2018-04-06T13:50:43.426Z,16.40
2018-04-06T13:53:09.790Z,16.40
2018-04-06T13:55:36.933Z,15.90
2018-04-06T13:58:04.138Z,16.00
2018-04-06T14:00:30.517Z,15.90
2018-04-06T14:02:57.635Z,16.10
2018-04-06T14:05:29.017Z,16.10
2018-04-06T14:07:56.226Z,15.90
2018-04-06T14:10:28.658Z,15.90
2018-04-06T14:12:55.049Z,16.10
2018-04-06T14:15:21.479Z,16.10
2018-04-06T14:17:47.937Z,16.10
2018-04-06T14:20:15.098Z,16.30
2018-04-06T14:22:50.706Z,16.30
2018-04-06T14:25:17.142Z,16.10
2018-04-06T14:27:43.498Z,16.00
2018-04-06T14:30:10.731Z,15.90
2018-04-06T14:32:37.121Z,15.90
2018-04-06T14:35:04.279Z,15.70
2018-04-06T14:37:30.667Z,15.70
2018-04-06T14:40:02.523Z,15.50
2018-04-06T14:42:28.912Z,15.50
2018-04-06T14:44:55.328Z,15.40
2018-04-06T14:47:22.490Z,15.30
2018-04-06T14:49:48.937Z,15.30
2018-04-06T14:52:15.314Z,15.40
2018-04-06T14:54:42.547Z,15.20
2018-04-06T14:57:08.941Z,15.20
2018-04-06T14:59:35.354Z,15.30
2018-04-06T15:02:02.531Z,15.00
2018-04-06T15:04:28.917Z,15.00
2018-04-06T15:06:55.310Z,14.90
2018-04-06T15:09:21.725Z,15.00
2018-04-06T15:11:48.127Z,15.10
2018-04-06T15:14:14.579Z,15.00
2018-04-06T15:16:41.063Z,15.10
2018-04-06T15:19:07.475Z,15.20
2018-04-06T15:21:33.902Z,15.20
2018-04-06T15:24:00.302Z,15.00
2018-04-06T15:26:26.717Z,14.90
2018-04-06T15:28:53.096Z,14.70
2018-04-06T15:31:19.495Z,14.50
2018-04-06T15:33:47.374Z,14.10
2018-04-06T15:36:14.514Z,14.20
2018-04-06T15:38:42.882Z,14.10
2018-04-06T15:41:13.180Z,14.30
2018-04-06T15:43:39.603Z,14.10
2018-04-06T15:46:06.466Z,14.10
2018-04-06T15:48:33.809Z,14.00
2018-04-06T15:51:02.251Z,14.00
2018-04-06T15:53:29.353Z,13.60
2018-04-06T15:56:01.520Z,13.60
2018-04-06T15:58:27.884Z,13.60
2018-04-06T16:00:54.326Z,13.50
2018-04-06T16:03:21.445Z,13.40
2018-04-06T16:05:47.887Z,13.30
2018-04-06T16:08:14.306Z,13.30
2018-04-06T16:10:40.722Z,13.20
2018-04-06T16:13:07.380Z,13.10
2018-04-06T16:15:33.876Z,13.00
2018-04-06T16:18:00.388Z,13.00
2018-04-06T16:20:27.568Z,12.90
2018-04-06T16:22:53.923Z,12.90
2018-04-06T16:25:20.338Z,12.80
2018-04-06T16:27:46.715Z,12.80
2018-04-06T16:30:13.105Z,12.70
2018-04-06T16:32:39.536Z,12.70
2018-04-06T16:35:05.943Z,12.60
2018-04-06T16:37:33.793Z,12.50
2018-04-06T16:40:18.718Z,12.40
2018-04-06T16:42:45.132Z,12.50
2018-04-06T16:45:12.273Z,12.40
2018-04-06T16:47:54.678Z,12.30
2018-04-06T16:50:21.822Z,12.20
2018-04-06T16:52:48.190Z,12.20
2018-04-06T16:55:19.631Z,12.10
2018-04-06T16:57:46.018Z,12.10
2018-04-06T17:00:14.437Z,12.10
2018-04-06T17:02:41.538Z,12.00
2018-04-06T17:05:07.932Z,11.90
2018-04-06T17:07:36.370Z,11.80
2018-04-06T17:10:03.524Z,11.70
2018-04-06T17:12:30.658Z,11.60
2018-04-06T17:14:57.030Z,11.60
2018-04-06T17:17:23.418Z,11.50
2018-04-06T17:19:49.866Z,11.40
2018-04-06T17:22:16.218Z,11.40
2018-04-06T17:24:42.628Z,11.30
2018-04-06T17:27:09.086Z,11.20
2018-04-06T17:29:36.209Z,11.10
2018-04-06T17:32:02.578Z,11.00
2018-04-06T17:34:29.006Z,11.00
2018-04-06T17:36:55.358Z,10.90
2018-04-06T17:39:22.463Z,10.80
2018-04-06T17:41:48.869Z,10.70
2018-04-06T17:44:15.230Z,10.70
2018-04-06T17:46:41.622Z,10.60
2018-04-06T17:49:08.043Z,10.50
2018-04-06T17:51:34.381Z,10.50
2018-04-06T17:54:00.732Z,10.40
2018-04-06T17:56:27.105Z,10.30
2018-04-06T17:58:54.943Z,10.10
2018-04-06T18:01:21.365Z,10.10
2018-04-06T18:03:47.726Z,10.10
2018-04-06T18:06:14.158Z,10.00
2018-04-06T18:08:40.509Z,9.90
2018-04-06T18:11:07.647Z,9.80
2018-04-06T18:13:34.046Z,9.80
2018-04-06T18:16:00.457Z,9.70
2018-04-06T18:18:26.811Z,9.60
2018-04-06T18:20:53.246Z,9.60
2018-04-06T18:23:19.626Z,9.50
2018-04-06T18:25:46.729Z,9.30
2018-04-06T18:28:13.099Z,9.30
2018-04-06T18:30:39.555Z,9.30
2018-04-06T18:33:05.910Z,9.20
2018-04-06T18:35:33.059Z,9.00
2018-04-06T18:37:59.457Z,9.00
2018-04-06T18:40:26.566Z,8.90
2018-04-06T18:42:52.914Z,8.90
2018-04-06T18:45:19.322Z,8.90
2018-04-06T18:47:45.746Z,8.80
2018-04-06T18:50:12.862Z,8.70
2018-04-06T18:52:39.241Z,8.70
2018-04-06T18:55:06.004Z,8.70
2018-04-06T18:57:33.700Z,8.60
2018-04-06T19:00:00.188Z,8.60
2018-04-06T19:02:26.600Z,8.60
2018-04-06T19:04:53.711Z,8.40
2018-04-06T19:07:20.208Z,8.40
2018-04-06T19:09:46.615Z,8.40
2018-04-06T19:12:13.010Z,8.30
2018-04-06T19:14:39.394Z,8.20
2018-04-06T19:17:05.794Z,8.20
2018-04-06T19:19:32.197Z,8.10
2018-04-06T19:21:58.573Z,8.00
2018-04-06T19:24:25.736Z,7.90
2018-04-06T19:26:52.842Z,7.90
2018-04-06T19:29:19.214Z,7.90
2018-04-06T19:31:45.573Z,7.80
2018-04-06T19:34:11.952Z,7.80
2018-04-06T19:36:38.337Z,7.80
2018-04-06T19:39:05.686Z,7.80
2018-04-06T19:41:32.054Z,7.80
2018-04-06T19:43:58.424Z,7.80
2018-04-06T19:46:24.832Z,7.70
2018-04-06T19:48:51.223Z,7.70
2018-04-06T19:51:17.609Z,7.80
2018-04-06T19:53:44.110Z,7.70
2018-04-06T19:56:10.496Z,7.70
2018-04-06T19:58:37.074Z,7.70
2018-04-06T20:01:03.486Z,7.60
2018-04-06T20:03:30.582Z,7.60
2018-04-06T20:05:56.958Z,7.60
2018-04-06T20:08:24.074Z,7.60
2018-04-06T20:10:50.470Z,7.60
2018-04-06T20:13:16.834Z,7.60
2018-04-06T20:15:43.274Z,7.50
2018-04-06T20:18:10.394Z,7.40
2018-04-06T20:20:36.845Z,7.40
2018-04-06T20:23:04.110Z,7.30
2018-04-06T20:25:30.486Z,7.30
2018-04-06T20:27:56.864Z,7.30
2018-04-06T20:30:23.221Z,7.30
2018-04-06T20:32:50.350Z,7.20
2018-04-06T20:35:16.704Z,7.20
2018-04-06T20:37:43.117Z,7.10
2018-04-06T20:40:09.557Z,7.10
2018-04-06T20:42:35.926Z,7.00
2018-04-06T20:45:04.031Z,7.10
2018-04-06T20:47:30.398Z,7.10
2018-04-06T20:49:56.755Z,7.10
2018-04-06T20:52:23.876Z,7.10
2018-04-06T20:54:50.217Z,7.10
2018-04-06T20:57:16.585Z,7.00
2018-04-06T20:59:45.757Z,6.90
2018-04-06T21:02:12.882Z,6.80
2018-04-06T21:04:39.233Z,6.80
2018-04-06T21:07:05.625Z,6.80
2018-04-06T21:09:31.995Z,6.70
2018-04-06T21:11:59.176Z,6.60
2018-04-06T21:14:25.576Z,6.60
2018-04-06T21:16:51.954Z,6.60
2018-04-06T21:19:18.320Z,6.60
2018-04-06T21:21:44.714Z,6.60
2018-04-06T21:24:11.802Z,6.60
2018-04-06T21:26:42.074Z,6.60
2018-04-06T21:29:08.470Z,6.60
2018-04-06T21:31:34.903Z,6.70
2018-04-06T21:34:01.233Z,6.60
2018-04-06T21:36:27.613Z,6.70
2018-04-06T21:38:54.702Z,6.70
2018-04-06T21:41:21.093Z,6.70
2018-04-06T21:43:48.169Z,6.70
2018-04-06T21:46:14.550Z,6.70
2018-04-06T21:48:40.910Z,6.80
2018-04-06T21:51:08.013Z,6.80
2018-04-06T21:53:35.112Z,6.80
2018-04-06T21:56:06.181Z,6.90
2018-04-06T21:58:32.536Z,6.90
2018-04-06T22:00:58.919Z,6.90
2018-04-06T22:03:25.306Z,6.90
2018-04-06T22:05:51.705Z,6.90
2018-04-06T22:08:18.094Z,6.90
2018-04-06T22:10:44.506Z,6.90
2018-04-06T22:13:10.895Z,6.90
2018-04-06T22:15:37.280Z,6.90
2018-04-06T22:18:03.687Z,6.90
2018-04-06T22:20:30.193Z,6.90
2018-04-06T22:22:56.584Z,6.90
2018-04-06T22:25:22.958Z,6.90
2018-04-06T22:27:49.364Z,6.90
2018-04-06T22:30:15.786Z,6.80
2018-04-06T22:32:42.270Z,6.80
2018-04-06T22:35:08.638Z,6.80
2018-04-06T22:37:35.009Z,6.80
2018-04-06T22:40:02.151Z,6.80
2018-04-06T22:42:29.997Z,6.80
2018-04-06T22:44:56.334Z,6.80
2018-04-06T22:47:22.707Z,6.90
2018-04-06T22:49:49.083Z,6.90
2018-04-06T22:52:15.486Z,6.90
2018-04-06T22:54:41.834Z,6.90
2018-04-06T22:57:08.213Z,7.00
2018-04-06T22:59:36.039Z,7.00
2018-04-06T23:02:02.410Z,7.00
2018-04-06T23:04:28.823Z,7.00
2018-04-06T23:06:55.198Z,7.00
2018-04-06T23:09:22.317Z,7.00
2018-04-06T23:11:48.700Z,7.00
2018-04-06T23:14:15.063Z,7.00
2018-04-06T23:16:41.516Z,6.90
2018-04-06T23:19:07.892Z,7.00
2018-04-06T23:21:34.305Z,6.90
2018-04-06T23:24:00.656Z,6.90
2018-04-06T23:26:27.762Z,6.90
2018-04-06T23:28:54.152Z,6.90
2018-04-06T23:31:20.517Z,6.90
2018-04-06T23:33:46.882Z,6.80
2018-04-06T23:36:13.261Z,6.80
2018-04-06T23:38:39.693Z,6.80
2018-04-06T23:41:06.069Z,6.70
2018-04-06T23:43:32.438Z,6.70
2018-04-06T23:45:58.828Z,6.60
2018-04-06T23:48:25.209Z,6.60
2018-04-06T23:50:51.636Z,6.60
2018-04-06T23:53:18.737Z,6.70
2018-04-06T23:55:45.154Z,6.60
2018-04-06T23:58:11.504Z,6.70
